sensor_id;sensor_type;location;lat;lon;timestamp;P1;durP1;ratioP1;P2;durP2;ratioP2
17812;SDS011;9030;50.792;8.320;2023-03-16T00:00:08;18.07;;;9.47;;
17812;SDS011;9030;50.792;8.320;2023-03-16T00:02:37;16.90;;;7.50;;
17812;SDS011;9030;50.792;8.320;2023-03-16T00:05:07;14.33;;;7.97;;
17812;SDS011;9030;50.792;8.320;2023-03-16T00:07:35;15.50;;;10.03;;
17812;SDS011;9030;50.792;8.320;2023-03-16T00:10:02;18.23;;;9.23;;
17812;SDS011;9030;50.792;8.320;2023-03-16T00:12:29;17.00;;;8.47;;
17812;SDS011;9030;50.792;8.320;2023-03-16T00:14:58;16.70;;;10.30;;
17812;SDS011;9030;50.792;8.320;2023-03-16T00:17:27;16.27;;;8.63;;
17812;SDS011;9030;50.792;8.320;2023-03-16T00:19:54;20.87;;;9.70;;
17812;SDS011;9030;50.792;8.320;2023-03-16T00:24:55;18.00;;;10.17;;
17812;SDS011;9030;50.792;8.320;2023-03-16T00:27:23;17.00;;;9.73;;
17812;SDS011;9030;50.792;8.320;2023-03-16T00:29:58;14.03;;;8.23;;
17812;SDS011;9030;50.792;8.320;2023-03-16T00:32:29;14.83;;;9.37;;
17812;SDS011;9030;50.792;8.320;2023-03-16T00:35:04;16.67;;;8.83;;
17812;SDS011;9030;50.792;8.320;2023-03-16T00:37:36;19.73;;;9.37;;
17812;SDS011;9030;50.792;8.320;2023-03-16T00:40:03;21.90;;;11.47;;
17812;SDS011;9030;50.792;8.320;2023-03-16T00:42:32;20.10;;;11.00;;
17812;SDS011;9030;50.792;8.320;2023-03-16T00:44:58;18.27;;;9.23;;
17812;SDS011;9030;50.792;8.320;2023-03-16T00:47:26;18.60;;;10.90;;
17812;SDS011;9030;50.792;8.320;2023-03-16T00:49:56;18.67;;;8.90;;
17812;SDS011;9030;50.792;8.320;2023-03-16T00:52:24;19.63;;;8.80;;
17812;SDS011;9030;50.792;8.320;2023-03-16T00:55:02;18.00;;;9.07;;
17812;SDS011;9030;50.792;8.320;2023-03-16T00:57:29;21.70;;;9.47;;
17812;SDS011;9030;50.792;8.320;2023-03-16T00:59:56;17.17;;;8.80;;
17812;SDS011;9030;50.792;8.320;2023-03-16T01:02:23;16.33;;;8.90;;
17812;SDS011;9030;50.792;8.320;2023-03-16T01:04:51;15.13;;;8.87;;
17812;SDS011;9030;50.792;8.320;2023-03-16T01:09:50;18.87;;;9.90;;
17812;SDS011;9030;50.792;8.320;2023-03-16T01:12:17;21.03;;;13.07;;
17812;SDS011;9030;50.792;8.320;2023-03-16T01:14:45;18.97;;;12.57;;
17812;SDS011;9030;50.792;8.320;2023-03-16T01:17:13;19.40;;;13.07;;
17812;SDS011;9030;50.792;8.320;2023-03-16T01:19:41;29.57;;;17.53;;
17812;SDS011;9030;50.792;8.320;2023-03-16T01:22:10;18.93;;;11.33;;
17812;SDS011;9030;50.792;8.320;2023-03-16T01:24:37;21.30;;;14.23;;
17812;SDS011;9030;50.792;8.320;2023-03-16T01:27:06;25.63;;;15.50;;
17812;SDS011;9030;50.792;8.320;2023-03-16T01:29:33;25.77;;;16.37;;
17812;SDS011;9030;50.792;8.320;2023-03-16T01:32:00;23.77;;;17.80;;
17812;SDS011;9030;50.792;8.320;2023-03-16T01:34:28;28.43;;;18.40;;
17812;SDS011;9030;50.792;8.320;2023-03-16T01:36:57;24.47;;;16.57;;
17812;SDS011;9030;50.792;8.320;2023-03-16T01:39:25;21.87;;;16.13;;
17812;SDS011;9030;50.792;8.320;2023-03-16T01:41:52;21.33;;;13.87;;
17812;SDS011;9030;50.792;8.320;2023-03-16T01:44:19;19.93;;;12.13;;
17812;SDS011;9030;50.792;8.320;2023-03-16T01:46:52;18.47;;;10.67;;
17812;SDS011;9030;50.792;8.320;2023-03-16T01:49:20;17.30;;;11.73;;
17812;SDS011;9030;50.792;8.320;2023-03-16T01:51:50;23.20;;;15.50;;
17812;SDS011;9030;50.792;8.320;2023-03-16T01:54:21;18.03;;;12.30;;
17812;SDS011;9030;50.792;8.320;2023-03-16T01:56:54;23.03;;;14.50;;
17812;SDS011;9030;50.792;8.320;2023-03-16T01:59:28;131.83;;;62.00;;
17812;SDS011;9030;50.792;8.320;2023-03-16T02:01:57;133.77;;;68.83;;
17812;SDS011;9030;50.792;8.320;2023-03-16T02:04:31;31.80;;;21.77;;
17812;SDS011;9030;50.792;8.320;2023-03-16T02:07:07;60.40;;;32.07;;
17812;SDS011;9030;50.792;8.320;2023-03-16T02:09:35;75.83;;;39.57;;
17812;SDS011;9030;50.792;8.320;2023-03-16T02:12:09;39.57;;;21.77;;
17812;SDS011;9030;50.792;8.320;2023-03-16T02:14:41;40.27;;;22.57;;
17812;SDS011;9030;50.792;8.320;2023-03-16T02:17:08;29.90;;;19.00;;
17812;SDS011;9030;50.792;8.320;2023-03-16T02:19:37;24.07;;;15.47;;
17812;SDS011;9030;50.792;8.320;2023-03-16T02:22:12;30.97;;;16.80;;
17812;SDS011;9030;50.792;8.320;2023-03-16T02:24:39;22.83;;;17.80;;
17812;SDS011;9030;50.792;8.320;2023-03-16T02:27:09;26.50;;;19.63;;
17812;SDS011;9030;50.792;8.320;2023-03-16T02:32:25;28.73;;;19.27;;
17812;SDS011;9030;50.792;8.320;2023-03-16T02:34:54;28.67;;;18.13;;
17812;SDS011;9030;50.792;8.320;2023-03-16T02:37:21;34.87;;;23.73;;
17812;SDS011;9030;50.792;8.320;2023-03-16T02:39:48;26.17;;;18.50;;
17812;SDS011;9030;50.792;8.320;2023-03-16T02:42:16;25.00;;;17.83;;
17812;SDS011;9030;50.792;8.320;2023-03-16T02:44:47;27.83;;;18.90;;
17812;SDS011;9030;50.792;8.320;2023-03-16T02:49:53;22.97;;;15.33;;
17812;SDS011;9030;50.792;8.320;2023-03-16T02:52:20;26.50;;;15.70;;
17812;SDS011;9030;50.792;8.320;2023-03-16T02:54:47;27.47;;;16.63;;
17812;SDS011;9030;50.792;8.320;2023-03-16T02:57:14;25.53;;;16.80;;
17812;SDS011;9030;50.792;8.320;2023-03-16T02:59:41;41.27;;;25.53;;
17812;SDS011;9030;50.792;8.320;2023-03-16T03:02:15;36.63;;;21.27;;
17812;SDS011;9030;50.792;8.320;2023-03-16T03:04:44;44.03;;;23.37;;
17812;SDS011;9030;50.792;8.320;2023-03-16T03:07:11;32.40;;;20.83;;
17812;SDS011;9030;50.792;8.320;2023-03-16T03:09:38;47.33;;;24.43;;
17812;SDS011;9030;50.792;8.320;2023-03-16T03:12:06;52.10;;;25.77;;
17812;SDS011;9030;50.792;8.320;2023-03-16T03:14:33;49.03;;;27.87;;
17812;SDS011;9030;50.792;8.320;2023-03-16T03:17:02;43.20;;;24.00;;
17812;SDS011;9030;50.792;8.320;2023-03-16T03:19:29;38.47;;;23.10;;
17812;SDS011;9030;50.792;8.320;2023-03-16T03:21:59;35.17;;;24.57;;
17812;SDS011;9030;50.792;8.320;2023-03-16T03:24:28;33.03;;;19.17;;
17812;SDS011;9030;50.792;8.320;2023-03-16T03:26:55;33.30;;;19.50;;
17812;SDS011;9030;50.792;8.320;2023-03-16T03:29:22;26.33;;;17.73;;
17812;SDS011;9030;50.792;8.320;2023-03-16T03:31:49;29.73;;;18.43;;
17812;SDS011;9030;50.792;8.320;2023-03-16T03:34:16;27.00;;;16.17;;
17812;SDS011;9030;50.792;8.320;2023-03-16T03:36:43;27.47;;;17.67;;
17812;SDS011;9030;50.792;8.320;2023-03-16T03:39:19;28.87;;;16.57;;
17812;SDS011;9030;50.792;8.320;2023-03-16T03:41:46;26.53;;;16.17;;
17812;SDS011;9030;50.792;8.320;2023-03-16T03:44:12;28.57;;;16.40;;
17812;SDS011;9030;50.792;8.320;2023-03-16T03:46:39;22.93;;;14.17;;
17812;SDS011;9030;50.792;8.320;2023-03-16T03:49:08;27.53;;;14.37;;
17812;SDS011;9030;50.792;8.320;2023-03-16T03:51:35;24.97;;;15.07;;
17812;SDS011;9030;50.792;8.320;2023-03-16T03:54:02;36.57;;;20.70;;
17812;SDS011;9030;50.792;8.320;2023-03-16T03:56:30;24.90;;;16.50;;
17812;SDS011;9030;50.792;8.320;2023-03-16T03:58:56;28.70;;;17.60;;
17812;SDS011;9030;50.792;8.320;2023-03-16T04:01:31;23.93;;;15.30;;
17812;SDS011;9030;50.792;8.320;2023-03-16T04:03:58;24.30;;;14.67;;
17812;SDS011;9030;50.792;8.320;2023-03-16T04:06:25;20.47;;;15.53;;
17812;SDS011;9030;50.792;8.320;2023-03-16T04:08:51;23.67;;;15.10;;
17812;SDS011;9030;50.792;8.320;2023-03-16T04:11:19;25.83;;;18.30;;
17812;SDS011;9030;50.792;8.320;2023-03-16T04:13:49;24.20;;;16.27;;
17812;SDS011;9030;50.792;8.320;2023-03-16T04:16:17;29.10;;;19.03;;
17812;SDS011;9030;50.792;8.320;2023-03-16T04:18:44;29.53;;;18.27;;
17812;SDS011;9030;50.792;8.320;2023-03-16T04:21:12;25.97;;;19.60;;
17812;SDS011;9030;50.792;8.320;2023-03-16T04:23:40;28.47;;;20.43;;
17812;SDS011;9030;50.792;8.320;2023-03-16T04:26:07;29.60;;;19.03;;
17812;SDS011;9030;50.792;8.320;2023-03-16T04:28:34;27.33;;;19.77;;
17812;SDS011;9030;50.792;8.320;2023-03-16T04:31:03;25.70;;;16.80;;
17812;SDS011;9030;50.792;8.320;2023-03-16T04:33:31;26.47;;;18.60;;
17812;SDS011;9030;50.792;8.320;2023-03-16T04:35:58;23.60;;;17.40;;
17812;SDS011;9030;50.792;8.320;2023-03-16T04:38:28;28.63;;;19.50;;
17812;SDS011;9030;50.792;8.320;2023-03-16T04:40:57;27.27;;;18.10;;
17812;SDS011;9030;50.792;8.320;2023-03-16T04:43:24;24.37;;;18.43;;
17812;SDS011;9030;50.792;8.320;2023-03-16T04:45:51;26.13;;;18.60;;
17812;SDS011;9030;50.792;8.320;2023-03-16T04:48:19;29.03;;;18.13;;
17812;SDS011;9030;50.792;8.320;2023-03-16T04:50:46;22.43;;;16.30;;
17812;SDS011;9030;50.792;8.320;2023-03-16T04:53:14;27.80;;;23.77;;
17812;SDS011;9030;50.792;8.320;2023-03-16T04:55:41;29.17;;;22.83;;
17812;SDS011;9030;50.792;8.320;2023-03-16T04:58:09;32.30;;;21.67;;
17812;SDS011;9030;50.792;8.320;2023-03-16T05:00:38;31.40;;;22.83;;
17812;SDS011;9030;50.792;8.320;2023-03-16T05:03:05;30.80;;;26.10;;
17812;SDS011;9030;50.792;8.320;2023-03-16T05:05:35;36.43;;;27.07;;
17812;SDS011;9030;50.792;8.320;2023-03-16T05:08:02;32.50;;;23.13;;
17812;SDS011;9030;50.792;8.320;2023-03-16T05:10:30;31.53;;;23.83;;
17812;SDS011;9030;50.792;8.320;2023-03-16T05:13:01;34.53;;;22.93;;
17812;SDS011;9030;50.792;8.320;2023-03-16T05:15:28;30.97;;;25.17;;
17812;SDS011;9030;50.792;8.320;2023-03-16T05:17:54;31.53;;;26.33;;
17812;SDS011;9030;50.792;8.320;2023-03-16T05:20:21;36.43;;;23.33;;
17812;SDS011;9030;50.792;8.320;2023-03-16T05:22:50;33.23;;;22.93;;
17812;SDS011;9030;50.792;8.320;2023-03-16T05:25:18;28.77;;;21.23;;
17812;SDS011;9030;50.792;8.320;2023-03-16T05:27:46;29.60;;;22.93;;
17812;SDS011;9030;50.792;8.320;2023-03-16T05:30:15;30.50;;;20.67;;
17812;SDS011;9030;50.792;8.320;2023-03-16T05:32:43;32.17;;;23.50;;
17812;SDS011;9030;50.792;8.320;2023-03-16T05:35:10;34.93;;;31.37;;
17812;SDS011;9030;50.792;8.320;2023-03-16T05:37:46;32.20;;;24.37;;
17812;SDS011;9030;50.792;8.320;2023-03-16T05:40:14;31.23;;;22.63;;
17812;SDS011;9030;50.792;8.320;2023-03-16T05:42:42;31.47;;;23.27;;
17812;SDS011;9030;50.792;8.320;2023-03-16T05:45:19;34.33;;;23.30;;
17812;SDS011;9030;50.792;8.320;2023-03-16T05:47:47;32.37;;;22.53;;
17812;SDS011;9030;50.792;8.320;2023-03-16T05:50:14;29.13;;;19.70;;
17812;SDS011;9030;50.792;8.320;2023-03-16T05:52:42;24.30;;;18.23;;
17812;SDS011;9030;50.792;8.320;2023-03-16T05:55:15;28.17;;;19.20;;
17812;SDS011;9030;50.792;8.320;2023-03-16T05:57:43;20.37;;;16.03;;
17812;SDS011;9030;50.792;8.320;2023-03-16T06:00:10;33.80;;;24.07;;
17812;SDS011;9030;50.792;8.320;2023-03-16T06:02:40;28.60;;;22.00;;
17812;SDS011;9030;50.792;8.320;2023-03-16T06:05:08;29.73;;;22.20;;
17812;SDS011;9030;50.792;8.320;2023-03-16T06:07:42;32.47;;;24.67;;
17812;SDS011;9030;50.792;8.320;2023-03-16T06:10:09;30.93;;;21.03;;
17812;SDS011;9030;50.792;8.320;2023-03-16T06:12:38;20.83;;;14.63;;
17812;SDS011;9030;50.792;8.320;2023-03-16T06:15:06;24.10;;;17.17;;
17812;SDS011;9030;50.792;8.320;2023-03-16T06:17:35;23.37;;;16.33;;
17812;SDS011;9030;50.792;8.320;2023-03-16T06:20:04;23.17;;;20.17;;
17812;SDS011;9030;50.792;8.320;2023-03-16T06:22:35;29.27;;;21.73;;
17812;SDS011;9030;50.792;8.320;2023-03-16T06:25:02;31.73;;;24.27;;
17812;SDS011;9030;50.792;8.320;2023-03-16T06:27:36;32.13;;;23.97;;
17812;SDS011;9030;50.792;8.320;2023-03-16T06:30:06;31.57;;;23.73;;
17812;SDS011;9030;50.792;8.320;2023-03-16T06:32:36;29.03;;;23.93;;
17812;SDS011;9030;50.792;8.320;2023-03-16T06:35:05;28.17;;;22.00;;
17812;SDS011;9030;50.792;8.320;2023-03-16T06:37:33;25.10;;;18.93;;
17812;SDS011;9030;50.792;8.320;2023-03-16T06:40:01;27.53;;;23.33;;
17812;SDS011;9030;50.792;8.320;2023-03-16T06:42:29;32.20;;;26.73;;
17812;SDS011;9030;50.792;8.320;2023-03-16T06:44:56;34.20;;;26.70;;
17812;SDS011;9030;50.792;8.320;2023-03-16T06:47:25;32.97;;;24.83;;
17812;SDS011;9030;50.792;8.320;2023-03-16T06:49:52;31.10;;;24.80;;
17812;SDS011;9030;50.792;8.320;2023-03-16T06:52:19;26.83;;;21.10;;
17812;SDS011;9030;50.792;8.320;2023-03-16T06:54:46;26.63;;;21.70;;
17812;SDS011;9030;50.792;8.320;2023-03-16T06:57:13;29.70;;;26.50;;
17812;SDS011;9030;50.792;8.320;2023-03-16T06:59:41;29.27;;;24.47;;
17812;SDS011;9030;50.792;8.320;2023-03-16T07:02:09;77.93;;;56.60;;
17812;SDS011;9030;50.792;8.320;2023-03-16T07:04:39;74.33;;;56.80;;
17812;SDS011;9030;50.792;8.320;2023-03-16T07:07:08;43.23;;;34.77;;
17812;SDS011;9030;50.792;8.320;2023-03-16T07:09:36;33.80;;;29.50;;
17812;SDS011;9030;50.792;8.320;2023-03-16T07:12:03;34.83;;;30.30;;
17812;SDS011;9030;50.792;8.320;2023-03-16T07:14:30;34.17;;;29.60;;
17812;SDS011;9030;50.792;8.320;2023-03-16T07:16:57;49.57;;;41.80;;
17812;SDS011;9030;50.792;8.320;2023-03-16T07:19:24;44.47;;;37.50;;
17812;SDS011;9030;50.792;8.320;2023-03-16T07:21:52;43.80;;;36.27;;
17812;SDS011;9030;50.792;8.320;2023-03-16T07:24:19;50.97;;;41.70;;
17812;SDS011;9030;50.792;8.320;2023-03-16T07:26:46;120.07;;;78.37;;
17812;SDS011;9030;50.792;8.320;2023-03-16T07:29:13;45.50;;;37.00;;
17812;SDS011;9030;50.792;8.320;2023-03-16T07:31:41;41.13;;;33.53;;
17812;SDS011;9030;50.792;8.320;2023-03-16T07:34:08;33.20;;;28.53;;
17812;SDS011;9030;50.792;8.320;2023-03-16T07:36:35;32.13;;;28.73;;
17812;SDS011;9030;50.792;8.320;2023-03-16T07:39:04;22.97;;;18.67;;
17812;SDS011;9030;50.792;8.320;2023-03-16T07:41:31;28.60;;;24.33;;
17812;SDS011;9030;50.792;8.320;2023-03-16T07:43:58;27.93;;;20.77;;
17812;SDS011;9030;50.792;8.320;2023-03-16T07:46:24;27.87;;;19.90;;
17812;SDS011;9030;50.792;8.320;2023-03-16T07:48:51;27.07;;;22.00;;
17812;SDS011;9030;50.792;8.320;2023-03-16T07:51:18;30.40;;;24.40;;
17812;SDS011;9030;50.792;8.320;2023-03-16T07:53:45;28.70;;;25.73;;
17812;SDS011;9030;50.792;8.320;2023-03-16T07:56:13;32.50;;;23.53;;
17812;SDS011;9030;50.792;8.320;2023-03-16T07:58:40;31.57;;;20.83;;
17812;SDS011;9030;50.792;8.320;2023-03-16T08:01:07;30.40;;;22.03;;
17812;SDS011;9030;50.792;8.320;2023-03-16T08:03:34;27.53;;;22.70;;
17812;SDS011;9030;50.792;8.320;2023-03-16T08:06:01;25.50;;;17.83;;
17812;SDS011;9030;50.792;8.320;2023-03-16T08:08:29;21.07;;;16.50;;
17812;SDS011;9030;50.792;8.320;2023-03-16T08:10:56;25.23;;;19.17;;
17812;SDS011;9030;50.792;8.320;2023-03-16T08:13:24;17.53;;;12.47;;
17812;SDS011;9030;50.792;8.320;2023-03-16T08:15:52;15.47;;;10.87;;
17812;SDS011;9030;50.792;8.320;2023-03-16T08:18:22;20.77;;;13.40;;
17812;SDS011;9030;50.792;8.320;2023-03-16T08:20:50;18.73;;;13.53;;
17812;SDS011;9030;50.792;8.320;2023-03-16T08:23:16;15.47;;;10.10;;
17812;SDS011;9030;50.792;8.320;2023-03-16T08:25:44;14.87;;;9.40;;
17812;SDS011;9030;50.792;8.320;2023-03-16T08:28:11;15.33;;;9.37;;
17812;SDS011;9030;50.792;8.320;2023-03-16T08:30:44;14.20;;;9.17;;
17812;SDS011;9030;50.792;8.320;2023-03-16T08:33:12;14.77;;;8.70;;
17812;SDS011;9030;50.792;8.320;2023-03-16T08:35:40;13.03;;;8.40;;
17812;SDS011;9030;50.792;8.320;2023-03-16T08:38:09;13.87;;;8.53;;
17812;SDS011;9030;50.792;8.320;2023-03-16T08:40:36;13.30;;;8.47;;
17812;SDS011;9030;50.792;8.320;2023-03-16T08:43:06;14.30;;;8.17;;
17812;SDS011;9030;50.792;8.320;2023-03-16T08:45:33;13.73;;;8.57;;
17812;SDS011;9030;50.792;8.320;2023-03-16T08:48:01;15.57;;;9.20;;
17812;SDS011;9030;50.792;8.320;2023-03-16T08:50:29;17.60;;;8.33;;
17812;SDS011;9030;50.792;8.320;2023-03-16T08:52:55;13.77;;;9.00;;
17812;SDS011;9030;50.792;8.320;2023-03-16T08:55:23;12.77;;;7.60;;
17812;SDS011;9030;50.792;8.320;2023-03-16T08:57:50;12.23;;;7.53;;
17812;SDS011;9030;50.792;8.320;2023-03-16T09:00:17;12.87;;;8.63;;
17812;SDS011;9030;50.792;8.320;2023-03-16T09:02:45;11.60;;;7.23;;
17812;SDS011;9030;50.792;8.320;2023-03-16T09:05:13;12.17;;;7.00;;
17812;SDS011;9030;50.792;8.320;2023-03-16T09:07:42;14.00;;;9.13;;
17812;SDS011;9030;50.792;8.320;2023-03-16T09:10:10;11.83;;;7.87;;
17812;SDS011;9030;50.792;8.320;2023-03-16T09:12:39;17.93;;;10.27;;
17812;SDS011;9030;50.792;8.320;2023-03-16T09:15:07;14.67;;;6.80;;
17812;SDS011;9030;50.792;8.320;2023-03-16T09:17:36;14.53;;;6.83;;
17812;SDS011;9030;50.792;8.320;2023-03-16T09:20:04;12.60;;;6.97;;
17812;SDS011;9030;50.792;8.320;2023-03-16T09:22:35;12.33;;;6.80;;
17812;SDS011;9030;50.792;8.320;2023-03-16T09:25:02;18.00;;;12.40;;
17812;SDS011;9030;50.792;8.320;2023-03-16T09:27:30;14.03;;;9.70;;
17812;SDS011;9030;50.792;8.320;2023-03-16T09:29:58;13.60;;;6.80;;
17812;SDS011;9030;50.792;8.320;2023-03-16T09:32:25;12.37;;;5.80;;
17812;SDS011;9030;50.792;8.320;2023-03-16T09:34:52;10.07;;;5.77;;
17812;SDS011;9030;50.792;8.320;2023-03-16T09:37:20;11.20;;;6.57;;
17812;SDS011;9030;50.792;8.320;2023-03-16T09:39:48;12.67;;;6.47;;
17812;SDS011;9030;50.792;8.320;2023-03-16T09:42:16;8.80;;;5.77;;
17812;SDS011;9030;50.792;8.320;2023-03-16T09:44:51;11.20;;;6.63;;
17812;SDS011;9030;50.792;8.320;2023-03-16T09:47:25;11.10;;;6.30;;
17812;SDS011;9030;50.792;8.320;2023-03-16T09:49:55;10.67;;;5.90;;
17812;SDS011;9030;50.792;8.320;2023-03-16T09:52:27;9.63;;;6.00;;
17812;SDS011;9030;50.792;8.320;2023-03-16T09:55:00;11.47;;;5.60;;
17812;SDS011;9030;50.792;8.320;2023-03-16T09:57:33;10.80;;;5.97;;
17812;SDS011;9030;50.792;8.320;2023-03-16T10:00:09;10.97;;;6.60;;
17812;SDS011;9030;50.792;8.320;2023-03-16T10:02:47;11.27;;;6.53;;
17812;SDS011;9030;50.792;8.320;2023-03-16T10:05:28;13.23;;;6.27;;
17812;SDS011;9030;50.792;8.320;2023-03-16T10:07:59;10.90;;;6.33;;
17812;SDS011;9030;50.792;8.320;2023-03-16T10:10:46;9.17;;;6.10;;
17812;SDS011;9030;50.792;8.320;2023-03-16T10:13:26;9.97;;;6.23;;
17812;SDS011;9030;50.792;8.320;2023-03-16T10:16:00;13.67;;;6.40;;
17812;SDS011;9030;50.792;8.320;2023-03-16T10:18:32;10.10;;;5.70;;
17812;SDS011;9030;50.792;8.320;2023-03-16T10:21:04;10.83;;;6.63;;
17812;SDS011;9030;50.792;8.320;2023-03-16T10:23:37;11.03;;;6.23;;
17812;SDS011;9030;50.792;8.320;2023-03-16T10:26:08;13.63;;;6.30;;
17812;SDS011;9030;50.792;8.320;2023-03-16T10:28:38;11.27;;;7.20;;
17812;SDS011;9030;50.792;8.320;2023-03-16T10:31:08;12.70;;;7.50;;
17812;SDS011;9030;50.792;8.320;2023-03-16T10:33:35;11.27;;;6.53;;
17812;SDS011;9030;50.792;8.320;2023-03-16T10:36:04;11.43;;;7.73;;
17812;SDS011;9030;50.792;8.320;2023-03-16T10:38:40;11.93;;;7.73;;
17812;SDS011;9030;50.792;8.320;2023-03-16T10:41:22;12.17;;;6.63;;
17812;SDS011;9030;50.792;8.320;2023-03-16T10:43:53;11.90;;;7.37;;
17812;SDS011;9030;50.792;8.320;2023-03-16T10:46:23;13.13;;;7.13;;
17812;SDS011;9030;50.792;8.320;2023-03-16T10:48:51;14.67;;;8.43;;
17812;SDS011;9030;50.792;8.320;2023-03-16T10:51:24;15.50;;;7.20;;
17812;SDS011;9030;50.792;8.320;2023-03-16T10:53:55;10.00;;;6.67;;
17812;SDS011;9030;50.792;8.320;2023-03-16T10:56:35;13.27;;;7.60;;
17812;SDS011;9030;50.792;8.320;2023-03-16T10:59:11;12.93;;;7.23;;
17812;SDS011;9030;50.792;8.320;2023-03-16T11:01:43;9.10;;;6.13;;
17812;SDS011;9030;50.792;8.320;2023-03-16T11:04:13;12.27;;;7.63;;
17812;SDS011;9030;50.792;8.320;2023-03-16T11:06:46;11.13;;;5.97;;
17812;SDS011;9030;50.792;8.320;2023-03-16T11:09:18;10.73;;;6.93;;
17812;SDS011;9030;50.792;8.320;2023-03-16T11:11:49;11.23;;;6.07;;
17812;SDS011;9030;50.792;8.320;2023-03-16T11:14:18;10.23;;;6.47;;
17812;SDS011;9030;50.792;8.320;2023-03-16T11:16:46;12.33;;;8.10;;
17812;SDS011;9030;50.792;8.320;2023-03-16T11:19:18;12.63;;;7.60;;
17812;SDS011;9030;50.792;8.320;2023-03-16T11:21:49;15.53;;;8.10;;
17812;SDS011;9030;50.792;8.320;2023-03-16T11:24:21;13.43;;;8.07;;
17812;SDS011;9030;50.792;8.320;2023-03-16T11:26:55;11.13;;;6.60;;
17812;SDS011;9030;50.792;8.320;2023-03-16T11:29:25;11.07;;;6.30;;
17812;SDS011;9030;50.792;8.320;2023-03-16T11:31:59;11.67;;;7.23;;
17812;SDS011;9030;50.792;8.320;2023-03-16T11:34:30;14.97;;;6.47;;
17812;SDS011;9030;50.792;8.320;2023-03-16T11:36:59;10.57;;;6.43;;
17812;SDS011;9030;50.792;8.320;2023-03-16T11:39:36;12.53;;;6.70;;
17812;SDS011;9030;50.792;8.320;2023-03-16T11:42:15;12.63;;;6.70;;
17812;SDS011;9030;50.792;8.320;2023-03-16T11:44:54;10.60;;;6.37;;
17812;SDS011;9030;50.792;8.320;2023-03-16T11:47:31;11.10;;;6.50;;
17812;SDS011;9030;50.792;8.320;2023-03-16T11:50:16;10.47;;;6.73;;
17812;SDS011;9030;50.792;8.320;2023-03-16T11:52:48;11.13;;;6.50;;
17812;SDS011;9030;50.792;8.320;2023-03-16T11:55:26;10.80;;;6.83;;
17812;SDS011;9030;50.792;8.320;2023-03-16T11:58:05;12.67;;;6.83;;
17812;SDS011;9030;50.792;8.320;2023-03-16T12:00:47;10.67;;;6.97;;
17812;SDS011;9030;50.792;8.320;2023-03-16T12:03:27;11.37;;;6.73;;
17812;SDS011;9030;50.792;8.320;2023-03-16T12:06:18;13.13;;;7.97;;
17812;SDS011;9030;50.792;8.320;2023-03-16T12:09:01;14.63;;;9.03;;
17812;SDS011;9030;50.792;8.320;2023-03-16T12:11:48;17.53;;;11.93;;
17812;SDS011;9030;50.792;8.320;2023-03-16T12:14:22;14.33;;;8.17;;
17812;SDS011;9030;50.792;8.320;2023-03-16T12:16:53;11.00;;;6.43;;
17812;SDS011;9030;50.792;8.320;2023-03-16T12:19:23;11.10;;;6.47;;
17812;SDS011;9030;50.792;8.320;2023-03-16T12:22:01;10.73;;;6.93;;
17812;SDS011;9030;50.792;8.320;2023-03-16T12:24:35;10.77;;;7.03;;
17812;SDS011;9030;50.792;8.320;2023-03-16T12:27:07;10.37;;;7.00;;
17812;SDS011;9030;50.792;8.320;2023-03-16T12:29:43;13.20;;;7.30;;
17812;SDS011;9030;50.792;8.320;2023-03-16T12:32:30;10.73;;;7.27;;
17812;SDS011;9030;50.792;8.320;2023-03-16T12:35:05;12.90;;;8.23;;
17812;SDS011;9030;50.792;8.320;2023-03-16T12:37:43;11.57;;;7.40;;
17812;SDS011;9030;50.792;8.320;2023-03-16T12:40:21;11.97;;;8.07;;
17812;SDS011;9030;50.792;8.320;2023-03-16T12:43:04;12.87;;;7.53;;
17812;SDS011;9030;50.792;8.320;2023-03-16T12:45:41;14.43;;;8.40;;
17812;SDS011;9030;50.792;8.320;2023-03-16T12:48:18;12.03;;;7.87;;
17812;SDS011;9030;50.792;8.320;2023-03-16T12:50:51;13.37;;;7.50;;
17812;SDS011;9030;50.792;8.320;2023-03-16T12:53:24;16.37;;;9.43;;
17812;SDS011;9030;50.792;8.320;2023-03-16T12:55:54;13.73;;;8.80;;
17812;SDS011;9030;50.792;8.320;2023-03-16T12:58:22;14.20;;;8.07;;
17812;SDS011;9030;50.792;8.320;2023-03-16T13:01:03;13.30;;;8.47;;
17812;SDS011;9030;50.792;8.320;2023-03-16T13:03:35;12.87;;;8.37;;
17812;SDS011;9030;50.792;8.320;2023-03-16T13:06:03;12.10;;;8.67;;
17812;SDS011;9030;50.792;8.320;2023-03-16T13:08:39;15.83;;;8.87;;
17812;SDS011;9030;50.792;8.320;2023-03-16T13:11:08;12.27;;;8.20;;
17812;SDS011;9030;50.792;8.320;2023-03-16T13:13:46;14.30;;;9.43;;
17812;SDS011;9030;50.792;8.320;2023-03-16T13:16:24;14.17;;;9.00;;
17812;SDS011;9030;50.792;8.320;2023-03-16T13:18:52;12.83;;;9.10;;
17812;SDS011;9030;50.792;8.320;2023-03-16T13:21:20;12.23;;;8.47;;
17812;SDS011;9030;50.792;8.320;2023-03-16T13:23:58;11.20;;;8.17;;
17812;SDS011;9030;50.792;8.320;2023-03-16T13:26:38;12.20;;;8.70;;
17812;SDS011;9030;50.792;8.320;2023-03-16T13:31:56;13.20;;;8.10;;
17812;SDS011;9030;50.792;8.320;2023-03-16T13:34:25;13.77;;;9.07;;
17812;SDS011;9030;50.792;8.320;2023-03-16T13:36:55;13.40;;;8.80;;
17812;SDS011;9030;50.792;8.320;2023-03-16T13:39:24;11.83;;;9.07;;
17812;SDS011;9030;50.792;8.320;2023-03-16T13:41:59;15.57;;;9.20;;
17812;SDS011;9030;50.792;8.320;2023-03-16T13:44:29;14.40;;;7.83;;
17812;SDS011;9030;50.792;8.320;2023-03-16T13:47:01;12.57;;;7.90;;
17812;SDS011;9030;50.792;8.320;2023-03-16T13:49:29;12.87;;;9.47;;
17812;SDS011;9030;50.792;8.320;2023-03-16T13:51:55;12.33;;;7.67;;
17812;SDS011;9030;50.792;8.320;2023-03-16T13:54:23;12.33;;;7.47;;
17812;SDS011;9030;50.792;8.320;2023-03-16T13:56:52;13.93;;;9.03;;
17812;SDS011;9030;50.792;8.320;2023-03-16T13:59:21;11.70;;;7.07;;
17812;SDS011;9030;50.792;8.320;2023-03-16T14:01:53;13.53;;;8.67;;
17812;SDS011;9030;50.792;8.320;2023-03-16T14:04:23;13.27;;;8.37;;
17812;SDS011;9030;50.792;8.320;2023-03-16T14:06:53;13.10;;;8.27;;
17812;SDS011;9030;50.792;8.320;2023-03-16T14:09:21;15.77;;;8.50;;
17812;SDS011;9030;50.792;8.320;2023-03-16T14:11:51;14.47;;;8.60;;
17812;SDS011;9030;50.792;8.320;2023-03-16T14:14:22;15.00;;;9.10;;
17812;SDS011;9030;50.792;8.320;2023-03-16T14:16:59;12.80;;;7.83;;
17812;SDS011;9030;50.792;8.320;2023-03-16T14:19:33;10.73;;;7.10;;
17812;SDS011;9030;50.792;8.320;2023-03-16T14:22:09;11.93;;;7.03;;
17812;SDS011;9030;50.792;8.320;2023-03-16T14:24:41;11.23;;;7.47;;
17812;SDS011;9030;50.792;8.320;2023-03-16T14:27:19;14.60;;;8.47;;
17812;SDS011;9030;50.792;8.320;2023-03-16T14:29:53;14.17;;;8.33;;
17812;SDS011;9030;50.792;8.320;2023-03-16T14:32:23;13.37;;;7.60;;
17812;SDS011;9030;50.792;8.320;2023-03-16T14:35:00;13.93;;;7.33;;
17812;SDS011;9030;50.792;8.320;2023-03-16T14:37:36;12.10;;;7.20;;
17812;SDS011;9030;50.792;8.320;2023-03-16T14:40:05;14.13;;;8.13;;
17812;SDS011;9030;50.792;8.320;2023-03-16T14:42:33;13.43;;;7.20;;
17812;SDS011;9030;50.792;8.320;2023-03-16T14:45:01;12.97;;;8.90;;
17812;SDS011;9030;50.792;8.320;2023-03-16T14:47:30;11.53;;;6.93;;
17812;SDS011;9030;50.792;8.320;2023-03-16T14:50:07;13.07;;;7.63;;
17812;SDS011;9030;50.792;8.320;2023-03-16T14:52:39;12.57;;;7.23;;
17812;SDS011;9030;50.792;8.320;2023-03-16T14:55:10;10.27;;;7.10;;
17812;SDS011;9030;50.792;8.320;2023-03-16T14:57:39;14.90;;;8.27;;
17812;SDS011;9030;50.792;8.320;2023-03-16T15:00:06;11.97;;;7.57;;
17812;SDS011;9030;50.792;8.320;2023-03-16T15:02:36;11.03;;;7.70;;
17812;SDS011;9030;50.792;8.320;2023-03-16T15:05:03;13.37;;;7.73;;
17812;SDS011;9030;50.792;8.320;2023-03-16T15:07:33;12.47;;;8.07;;
17812;SDS011;9030;50.792;8.320;2023-03-16T15:10:04;9.83;;;6.67;;